Farmington River @ Riverton, Ct

W.B. Farmington River at Riverton
 Total Drainage Area: 131 sq. miles 
 Drainage Area Controlled by Corps Dams: 118 sq. miles (90%) 
 Warning Flow/Stage: 1,500 cfs / 6.5 feet 
 Flood Flow/Stage: 3,010 cfs / 8.1 feet 
Date Time
(Eastern)
Stage
(ft)
Flow
(cfs)
CSM
(cfs / sq. mi.)
Jun-25 12:30 am 4.00 206 1.6
Jun-24 11:30 pm 4.00 206 1.6
Jun-24 10:30 pm 4.00 206 1.6
Jun-24 09:30 pm 3.99 204 1.6
Jun-24 08:30 pm 4.00 206 1.6
Jun-24 07:30 pm 4.00 206 1.6
Jun-24 06:30 pm 4.00 206 1.6
Jun-24 05:30 pm 3.99 204 1.6
Jun-24 04:30 pm 3.99 204 1.6
Jun-24 03:30 pm 3.99 204 1.6
Jun-24 02:30 pm 3.99 204 1.6
Jun-24 01:30 pm 4.01 210 1.6
Jun-24 12:30 pm 3.97 198 1.5
Jun-24 11:30 am 3.97 198 1.5
Jun-24 10:30 am 3.99 204 1.6
Jun-24 09:30 am 4.03 216 1.7
Jun-24 08:30 am 4.03 216 1.7
Jun-24 07:30 am 4.03 216 1.7
Jun-24 06:30 am 4.03 216 1.7
Jun-24 05:30 am 4.03 216 1.7
Jun-24 04:30 am 4.03 216 1.7
Jun-24 03:30 am 4.03 216 1.7
Jun-24 02:30 am 4.03 216 1.7
Jun-24 01:30 am 4.03 216 1.7
Jun-24 12:30 am 4.03 216 1.7
Report Generated June 25, 2024 04:55 am